Time;durP1;ratioP1;P1;durP2;ratioP2;P2;SDS_P1;SDS_P2;PMS_P1;PMS_P2;Temp;Humidity;BMP_temperature;BMP_pressure;BME280_temperature;BME280_humidity;BME280_pressure;Samples;Min_cycle;Max_cycle;Signal;HPM_P1;HPM_P2
2022/09/15 00:00:47;;;;;;;6.05;4.35;;;;;;;20.13;66.74;94528.06;5108605;28;20199;-79
2022/09/15 00:03:13;;;;;;;7.47;4.20;;;;;;;19.67;67.51;94456.19;5108869;28;20280;-79
2022/09/15 00:05:40;;;;;;;9.03;5.03;;;;;;;20.00;67.79;94515.09;5109191;28;20232;-79
2022/09/15 00:08:07;;;;;;;10.77;4.57;;;;;;;20.02;67.62;94520.88;5109576;28;20185;-78
2022/09/15 00:10:34;;;;;;;6.47;4.47;;;;;;;19.96;68.09;94516.50;5113100;28;20192;-79
2022/09/15 00:13:02;;;;;;;11.73;4.95;;;;;;;19.06;68.08;94386.28;5113677;28;20208;-80
2022/09/15 00:15:29;;;;;;;6.53;4.30;;;;;;;19.88;68.58;94519.28;5113473;28;20181;-79
2022/09/15 00:17:56;;;;;;;10.90;4.70;;;;;;;19.88;68.36;94522.66;5113354;28;20242;-80
2022/09/15 00:20:23;;;;;;;9.43;4.70;;;;;;;19.80;69.33;94521.06;5118965;28;20194;-81
2022/09/15 00:22:49;;;;;;;7.90;5.20;;;;;;;19.77;69.29;94523.25;5129383;28;20270;-79
2022/09/15 00:25:17;;;;;;;10.13;4.90;;;;;;;19.79;69.00;94522.06;5120804;28;20189;-80
2022/09/15 00:27:44;;;;;;;9.77;5.17;;;;;;;19.60;69.26;94494.25;5134408;28;20272;-81
2022/09/15 00:30:12;;;;;;;9.73;5.03;;;;;;;19.43;69.04;94473.09;5135164;28;20317;-81
2022/09/15 00:32:39;;;;;;;8.67;5.20;;;;;;;19.71;69.37;94526.66;5125729;28;20268;-80
2022/09/15 00:35:06;;;;;;;11.80;5.73;;;;;;;19.70;68.84;94506.88;5113307;28;20184;-80
2022/09/15 00:37:34;;;;;;;9.00;5.67;;;;;;;19.11;69.23;94427.16;5112588;28;20613;-78
2022/09/15 00:40:01;;;;;;;5.80;4.60;;;;;;;19.31;69.28;94453.94;5112201;28;20548;-82
2022/09/15 00:42:27;;;;;;;11.57;5.10;;;;;;;19.59;69.04;94503.03;5112473;28;20196;-82
2022/09/15 00:44:57;;;;;;;9.93;6.07;;;;;;;19.50;69.55;94491.25;5111201;28;20191;-80
2022/09/15 00:47:40;;;;;;;8.97;5.53;;;;;;;19.59;69.63;94512.63;5112641;28;20189;-80
2022/09/15 00:50:10;;;;;;;9.27;5.60;;;;;;;18.86;69.66;94411.34;5112631;28;20192;-80
2022/09/15 00:52:44;;;;;;;11.23;5.80;;;;;;;19.11;69.92;94456.47;5112159;28;20196;-79
2022/09/15 00:55:15;;;;;;;7.53;5.00;;;;;;;18.74;69.60;94408.56;5111983;28;20655;-80
2022/09/15 00:57:47;;;;;;;8.27;5.47;;;;;;;18.98;70.24;94431.31;5112760;28;20182;-79
2022/09/15 01:00:17;;;;;;;10.63;5.47;;;;;;;19.10;70.61;94460.06;5111608;28;20185;-80
2022/09/15 01:02:48;;;;;;;13.60;5.23;;;;;;;19.43;70.92;94513.78;5111862;28;20189;-79
2022/09/15 01:05:17;;;;;;;8.80;5.40;;;;;;;18.66;70.61;94395.75;5111558;28;20644;-79
2022/09/15 01:07:48;;;;;;;5.73;4.53;;;;;;;19.40;71.34;94515.00;5111892;28;20642;-79
2022/09/15 01:10:19;;;;;;;4.97;4.43;;;;;;;19.35;70.94;94514.00;5111570;28;20173;-80
2022/09/15 01:12:46;;;;;;;6.57;4.40;;;;;;;18.79;71.57;94434.66;5111558;28;20193;-79
2022/09/15 01:15:14;;;;;;;6.33;4.80;;;;;;;19.26;71.70;94515.97;5111026;28;20193;-80
2022/09/15 01:17:54;;;;;;;5.23;4.37;;;;;;;19.25;71.79;94519.53;5111640;28;20200;-80
2022/09/15 01:20:51;;;;;;;5.17;3.83;;;;;;;19.26;71.82;94515.97;5111167;28;20192;-79
2022/09/15 01:23:38;;;;;;;7.47;4.40;;;;;;;19.20;72.21;94501.97;5110879;28;20193;-79
2022/09/15 01:26:36;;;;;;;4.97;3.63;;;;;;;19.20;71.84;94506.34;5113690;28;20185;-81
2022/09/15 01:29:30;;;;;;;6.90;3.67;;;;;;;19.21;70.93;94519.13;5114945;28;20288;-79
2022/09/15 01:34:55;;;;;;;3.97;3.57;;;;;;;19.19;70.77;94513.34;5111413;28;20211;-79
2022/09/15 01:37:28;;;;;;;6.10;3.83;;;;;;;18.96;71.03;94479.97;5111521;28;20190;-80
2022/09/15 01:39:58;;;;;;;4.43;3.30;;;;;;;19.13;72.03;94505.53;5110728;28;20189;-80
2022/09/15 01:42:29;;;;;;;4.03;3.40;;;;;;;18.51;72.21;94414.78;5110997;28;20184;-79
2022/09/15 01:45:01;;;;;;;9.50;3.50;;;;;;;19.12;71.29;94509.13;5110361;28;20200;-80
2022/09/15 01:47:29;;;;;;;4.90;3.43;;;;;;;19.11;71.22;94504.94;5110982;28;20197;-80
2022/09/15 01:50:02;;;;;;;3.70;2.93;;;;;;;18.95;70.85;94469.78;5110584;28;20204;-79
2022/09/15 01:52:30;;;;;;;4.13;3.73;;;;;;;19.15;70.66;94501.75;5111441;28;20189;-79
2022/09/15 01:55:06;;;;;;;5.70;3.67;;;;;;;19.01;71.00;94487.97;5110934;28;20221;-79
2022/09/15 01:57:33;;;;;;;5.60;3.60;;;;;;;19.09;70.26;94488.78;5111129;28;20180;-80
2022/09/15 02:00:02;;;;;;;4.97;3.50;;;;;;;19.12;70.04;94490.97;5111311;28;20212;-78
2022/09/15 02:02:35;;;;;;;5.07;3.07;;;;;;;19.18;69.67;94498.78;5113192;28;20189;-81
2022/09/15 02:05:08;;;;;;;7.73;3.20;;;;;;;19.24;68.40;94487.63;5114828;28;20193;-79
2022/09/15 02:07:43;;;;;;;7.00;3.20;;;;;;;19.29;67.54;94485.22;5110992;28;20197;-79
2022/09/15 02:10:14;;;;;;;6.03;3.23;;;;;;;19.38;67.34;94493.63;5110818;28;20248;-79
2022/09/15 02:12:49;;;;;;;6.17;3.60;;;;;;;19.01;67.50;94420.56;5110593;28;20249;-79
2022/09/15 02:15:24;;;;;;;3.30;3.00;;;;;;;19.27;67.68;94489.81;5110041;28;20699;-79
2022/09/15 02:17:54;;;;;;;3.33;3.03;;;;;;;19.25;67.34;94491.81;5111014;28;20192;-82
2022/09/15 02:20:30;;;;;;;6.53;3.07;;;;;;;18.96;67.29;94456.66;5110241;28;20735;-78
2022/09/15 02:23:02;;;;;;;4.57;2.80;;;;;;;19.27;67.51;94495.00;5110595;28;20197;-80
2022/09/15 02:25:34;;;;;;;4.00;3.03;;;;;;;18.24;67.40;94322.50;5110105;28;20247;-80
2022/09/15 02:28:07;;;;;;;5.00;2.83;;;;;;;19.24;67.64;94497.19;5109915;28;20208;-79
2022/09/15 02:30:40;;;;;;;7.57;3.40;;;;;;;19.08;67.65;94463.84;5110176;28;20279;-79
2022/09/15 02:33:10;;;;;;;6.57;4.00;;;;;;;19.05;67.58;94468.44;5109360;28;20188;-79
2022/09/15 02:35:37;;;;;;;6.80;3.57;;;;;;;18.94;68.35;94448.25;5110300;28;20557;-80
2022/09/15 02:38:07;;;;;;;5.57;3.63;;;;;;;18.09;67.78;94320.06;5110476;28;20189;-79
2022/09/15 02:40:35;;;;;;;4.10;3.70;;;;;;;19.17;67.35;94478.22;5109836;28;20203;-79
2022/09/15 02:43:04;;;;;;;6.80;3.53;;;;;;;18.71;67.23;94407.13;5109899;28;20817;-78
2022/09/15 02:45:32;;;;;;;6.67;3.73;;;;;;;19.02;67.99;94462.84;5109594;28;20661;-79
2022/09/15 02:48:00;;;;;;;4.33;3.10;;;;;;;19.16;68.20;94489.59;5110256;28;20177;-80
2022/09/15 02:50:27;;;;;;;5.20;3.37;;;;;;;19.08;68.97;94500.13;5109622;28;20956;-77
2022/09/15 02:52:54;;;;;;;6.97;3.50;;;;;;;19.11;68.71;94486.78;5109545;28;20199;-80
2022/09/15 02:55:21;;;;;;;8.70;4.07;;;;;;;18.24;68.67;94353.56;5109045;28;20204;-80
2022/09/15 02:57:48;;;;;;;6.70;4.10;;;;;;;19.10;69.06;94487.78;5109972;28;20193;-80
2022/09/15 03:00:18;;;;;;;5.13;3.40;;;;;;;18.99;69.80;94476.19;5109390;28;20197;-79
2022/09/15 03:02:48;;;;;;;9.53;3.97;;;;;;;18.46;69.32;94404.22;5109600;28;20280;-79
2022/09/15 03:05:19;;;;;;;5.93;3.50;;;;;;;18.92;69.65;94478.75;5109104;28;20223;-80
2022/09/15 03:07:46;;;;;;;9.50;4.03;;;;;;;18.88;70.06;94485.31;5109596;28;20200;-79
2022/09/15 03:10:14;;;;;;;6.90;3.83;;;;;;;18.88;70.28;94498.28;5109189;28;20185;-79
2022/09/15 03:12:43;;;;;;;5.73;4.00;;;;;;;18.82;70.50;94493.06;5109629;28;20196;-79
2022/09/15 03:15:12;;;;;;;5.23;3.90;;;;;;;18.89;70.86;94506.84;5109914;28;20253;-80
2022/09/15 03:17:41;;;;;;;5.67;4.07;;;;;;;18.82;70.53;94517.16;5109546;28;20192;-78
2022/09/15 03:20:10;;;;;;;8.43;4.13;;;;;;;18.69;72.01;94507.53;5109673;28;20188;-79
2022/09/15 03:22:38;;;;;;;7.90;4.00;;;;;;;18.85;71.02;94518.59;5109152;28;20304;-80
2022/09/15 03:25:06;;;;;;;11.73;4.50;;;;;;;18.64;71.26;94496.13;5109614;28;20196;-79
2022/09/15 03:27:33;;;;;;;7.70;4.80;;;;;;;18.36;71.35;94473.69;5109443;28;20188;-79
2022/09/15 03:30:00;;;;;;;12.93;4.53;;;;;;;18.60;71.61;94531.97;5109451;28;20200;-79
2022/09/15 03:32:27;;;;;;;5.97;4.63;;;;;;;17.52;71.78;94359.88;5110263;28;20204;-80
2022/09/15 03:34:54;;;;;;;8.03;4.57;;;;;;;18.22;71.87;94467.66;5109587;28;20270;-80
2022/09/15 03:37:21;;;;;;;7.87;4.47;;;;;;;18.34;72.04;94493.78;5109425;28;20207;-80
2022/09/15 03:39:49;;;;;;;10.03;4.60;;;;;;;18.00;72.19;94442.81;5111663;28;20181;-79
2022/09/15 03:42:16;;;;;;;6.90;4.93;;;;;;;18.40;72.42;94497.41;5109386;28;20185;-78
2022/09/15 03:44:43;;;;;;;16.73;4.77;;;;;;;18.33;72.88;94492.19;5113339;28;20720;-79
2022/09/15 03:47:10;;;;;;;9.60;3.77;;;;;;;18.55;71.83;94500.69;5113362;28;20185;-79
2022/09/15 03:49:37;;;;;;;11.57;4.43;;;;;;;18.61;71.73;94507.69;5113216;28;20182;-80
2022/09/15 03:52:04;;;;;;;6.63;4.23;;;;;;;18.47;72.21;94518.97;5113455;28;20188;-79
2022/09/15 03:54:31;;;;;;;6.97;4.87;;;;;;;18.21;72.29;94473.78;5113501;28;20390;-79
2022/09/15 03:56:59;;;;;;;8.33;4.73;;;;;;;18.41;72.72;94510.16;5113262;28;20587;-79
2022/09/15 03:59:26;;;;;;;12.23;4.50;;;;;;;18.13;72.66;94467.97;5112858;28;20659;-79
2022/09/15 04:01:53;;;;;;;4.87;4.20;;;;;;;18.44;72.10;94512.38;5113038;28;20185;-81
2022/09/15 04:04:20;;;;;;;10.73;4.73;;;;;;;17.53;72.85;94371.84;5112478;28;20196;-79
2022/09/15 04:06:47;;;;;;;9.17;4.70;;;;;;;18.13;72.94;94475.72;5112871;28;20255;-81
2022/09/15 04:09:14;;;;;;;6.57;4.40;;;;;;;18.35;73.34;94516.13;5113705;28;20205;-79
2022/09/15 04:11:41;;;;;;;6.17;4.03;;;;;;;18.33;73.31;94510.31;5112730;28;20593;-80
2022/09/15 04:14:09;;;;;;;10.03;4.80;;;;;;;18.20;73.43;94497.28;5113078;28;20252;-79
2022/09/15 04:16:36;;;;;;;8.03;4.37;;;;;;;18.36;73.40;94519.50;5112846;28;20709;-80
2022/09/15 04:19:03;;;;;;;6.43;4.30;;;;;;;17.25;73.96;94351.13;5113179;28;20193;-80
2022/09/15 04:21:30;;;;;;;13.57;5.00;;;;;;;17.43;73.95;94382.50;5112814;28;20671;-79
2022/09/15 04:23:57;;;;;;;10.13;4.80;;;;;;;18.28;74.46;94507.50;5112357;28;20628;-80
2022/09/15 04:26:28;;;;;;;14.40;6.07;;;;;;;18.27;74.52;94508.50;5112659;28;20207;-79
2022/09/15 04:28:56;;;;;;;11.87;4.67;;;;;;;18.15;73.93;94487.50;5112895;28;20200;-80
2022/09/15 04:31:24;;;;;;;5.53;4.17;;;;;;;17.95;74.15;94440.78;5112946;28;20189;-80
2022/09/15 04:33:53;;;;;;;7.93;6.30;;;;;;;18.36;74.11;94512.53;5112426;28;20253;-80
2022/09/15 04:36:23;;;;;;;10.77;6.10;;;;;;;18.15;74.36;94482.31;5112729;28;20666;-80
2022/09/15 04:38:51;;;;;;;14.80;5.47;;;;;;;18.45;73.66;94518.38;5113237;28;20208;-79
2022/09/15 04:41:19;;;;;;;10.97;5.80;;;;;;;18.47;73.68;94506.00;5112891;28;20590;-80
2022/09/15 04:43:46;;;;;;;11.97;4.87;;;;;;;18.54;72.26;94515.41;5113478;28;20731;-79
2022/09/15 04:46:14;;;;;;;9.23;5.40;;;;;;;18.54;73.06;94507.66;5113762;28;20197;-79
2022/09/15 04:48:42;;;;;;;9.93;5.13;;;;;;;18.63;73.20;94508.28;5113604;28;20680;-80
2022/09/15 04:51:12;;;;;;;11.63;5.67;;;;;;;18.81;72.59;94497.44;5113865;28;20193;-80
2022/09/15 04:53:40;;;;;;;19.67;6.20;;;;;;;18.77;72.34;94502.22;5113825;28;20548;-81
2022/09/15 04:56:09;;;;;;;17.17;6.27;;;;;;;18.38;71.73;94438.03;5112029;28;20205;-79
2022/09/15 04:58:37;;;;;;;12.87;5.20;;;;;;;18.69;71.92;94494.59;5112029;28;20203;-81
2022/09/15 05:01:08;;;;;;;10.13;6.00;;;;;;;18.83;72.14;94513.63;5112189;28;20189;-81
2022/09/15 05:03:36;;;;;;;17.93;6.40;;;;;;;18.96;72.13;94515.47;5115758;28;20636;-79
2022/09/15 05:06:05;;;;;;;12.77;5.20;;;;;;;18.99;71.78;94507.28;5112029;28;20267;-80
2022/09/15 05:08:32;;;;;;;22.07;6.37;;;;;;;19.08;71.52;94513.88;5111781;28;20221;-82
2022/09/15 05:11:00;;;;;;;16.70;6.70;;;;;;;18.89;72.22;94481.72;5111372;28;20201;-80
2022/09/15 05:13:27;;;;;;;15.03;6.47;;;;;;;18.75;72.26;94452.38;5112509;28;20188;-79
2022/09/15 05:15:54;;;;;;;11.87;6.30;;;;;;;18.45;71.63;94378.53;5102658;28;20678;-80
2022/09/15 05:18:21;;;;;;;20.20;7.27;;;;;;;19.43;72.14;94500.81;5093235;28;20194;-80
2022/09/15 05:20:48;;;;;;;14.87;6.00;;;;;;;18.52;71.31;94332.72;5091740;28;20292;-78
2022/09/15 05:23:16;;;;;;;14.30;6.87;;;;;;;19.65;71.89;94501.50;5091359;28;20683;-80
2022/09/15 05:25:43;;;;;;;13.20;6.30;;;;;;;19.61;72.31;94484.72;5091203;28;20196;-80
2022/09/15 05:28:10;;;;;;;12.50;6.87;;;;;;;19.73;71.13;94480.53;5101604;28;20280;-80
2022/09/15 05:30:41;;;;;;;14.57;7.10;;;;;;;19.97;70.92;94492.13;5111890;28;20192;-81
2022/09/15 05:33:08;;;;;;;20.27;6.30;;;;;;;19.18;70.40;94347.63;5108442;28;20193;-78
2022/09/15 05:35:35;;;;;;;10.33;5.60;;;;;;;20.31;69.15;94493.69;5106600;28;20216;-79
2022/09/15 05:38:04;;;;;;;10.80;4.83;;;;;;;20.54;67.61;94490.66;5111083;28;20188;-77
2022/09/15 05:40:34;;;;;;;6.43;4.38;;;;;;;20.66;65.88;94473.44;5111494;28;20185;-79
2022/09/15 05:43:00;;;;;;;11.82;4.55;;;;;;;20.92;64.92;94480.34;5108638;28;20196;-79
2022/09/15 05:45:27;;;;;;;7.70;4.22;;;;;;;20.97;62.21;94483.13;5074292;28;20239;-80
2022/09/15 05:47:54;;;;;;;8.00;4.22;;;;;;;21.19;63.54;94475.00;5091417;28;20557;-81
2022/09/15 05:50:21;;;;;;;10.07;4.85;;;;;;;21.45;62.55;94474.88;5091240;28;20595;-81
2022/09/15 05:52:51;;;;;;;7.47;3.85;;;;;;;21.48;61.40;94445.84;5106711;28;20189;-79
2022/09/15 05:55:18;;;;;;;5.65;3.55;;;;;;;21.84;63.86;94459.19;5110742;28;20247;-77
2022/09/15 05:57:46;;;;;;;6.07;3.45;;;;;;;22.19;61.43;94469.94;5111335;28;20184;-78
2022/09/15 06:00:14;;;;;;;11.85;3.78;;;;;;;22.46;64.55;94471.28;5111795;28;20193;-78
2022/09/15 06:02:41;;;;;;;9.15;4.13;;;;;;;22.59;57.35;94477.38;5111531;28;20664;-79
2022/09/15 06:05:08;;;;;;;10.85;4.47;;;;;;;22.83;59.52;94467.84;5111622;28;20228;-82
2022/09/15 06:07:35;;;;;;;11.07;3.95;;;;;;;21.49;57.61;94261.91;5111205;28;20181;-82
2022/09/15 06:10:02;;;;;;;8.43;3.42;;;;;;;23.04;57.55;94457.78;5113625;28;20188;-81
2022/09/15 06:12:29;;;;;;;5.28;3.78;;;;;;;23.18;55.99;94463.63;5112463;28;20181;-80
2022/09/15 06:14:58;;;;;;;7.53;3.15;;;;;;;23.33;56.42;94481.50;5111398;28;20224;-79
2022/09/15 06:17:26;;;;;;;6.20;3.63;;;;;;;23.31;54.96;94483.50;5111330;28;20200;-82
2022/09/15 06:19:53;;;;;;;6.32;3.25;;;;;;;23.06;56.05;94412.41;5111085;28;20242;-83
2022/09/15 06:22:20;;;;;;;10.73;4.13;;;;;;;23.67;54.08;94479.25;5111198;28;20177;-80
2022/09/15 06:24:47;;;;;;;7.45;3.70;;;;;;;23.90;56.43;94476.66;5110826;28;20208;-78
2022/09/15 06:27:14;;;;;;;14.32;3.83;;;;;;;24.04;55.13;94444.06;5110952;28;20300;-79
2022/09/15 06:29:41;;;;;;;7.30;3.80;;;;;;;24.19;54.01;94435.78;5092220;28;20189;-78
2022/09/15 06:32:09;;;;;;;5.00;3.67;;;;;;;24.50;52.85;94470.44;5090547;28;20189;-80
2022/09/15 06:34:36;;;;;;;8.35;3.72;;;;;;;24.44;52.49;94464.31;5090169;28;20664;-79
2022/09/15 06:37:02;;;;;;;7.90;3.75;;;;;;;24.66;52.22;94476.81;5090441;28;20273;-82
2022/09/15 06:39:29;;;;;;;6.28;3.50;;;;;;;24.75;53.40;94459.72;5090240;28;20190;-80
2022/09/15 06:41:56;;;;;;;9.35;3.85;;;;;;;24.92;51.21;94455.34;5101988;28;20602;-84
2022/09/15 06:44:23;;;;;;;7.28;4.10;;;;;;;25.14;52.20;94460.75;5110618;28;20545;-81
2022/09/15 06:46:50;;;;;;;9.20;3.88;;;;;;;25.17;49.85;94473.41;5110357;28;20189;-79
2022/09/15 06:49:20;;;;;;;5.43;3.33;;;;;;;25.31;50.72;94475.72;5110220;28;20225;-82
2022/09/15 06:51:47;;;;;;;7.95;3.42;;;;;;;25.41;49.80;94471.44;5110135;28;20276;-78
2022/09/15 06:54:15;;;;;;;6.03;3.78;;;;;;;25.39;50.25;94449.13;5110527;28;20181;-78
2022/09/15 06:56:43;;;;;;;6.40;3.53;;;;;;;25.75;49.66;94484.59;5110205;28;20285;-84
2022/09/15 06:59:13;;;;;;;8.02;3.50;;;;;;;25.45;49.89;94422.03;5100124;28;20542;-79
2022/09/15 07:01:40;;;;;;;10.27;4.18;;;;;;;25.45;47.70;94411.56;5110589;28;20705;-83
2022/09/15 07:04:08;;;;;;;7.88;3.88;;;;;;;25.85;47.72;94484.00;5115453;28;20639;-86
2022/09/15 07:06:38;;;;;;;10.50;4.78;;;;;;;26.10;49.72;94494.09;5111960;28;20263;-78
2022/09/15 07:09:06;;;;;;;11.32;4.93;;;;;;;25.95;46.71;94461.38;5111048;28;20189;-78
2022/09/15 07:11:33;;;;;;;10.10;4.82;;;;;;;26.22;46.20;94508.69;5111340;28;20196;-78
2022/09/15 07:14:00;;;;;;;9.15;4.10;;;;;;;26.17;46.17;94511.25;5118897;28;20177;-78
2022/09/15 07:16:27;;;;;;;10.82;4.25;;;;;;;26.15;46.39;94523.78;5119806;28;20224;-77
2022/09/15 07:18:55;;;;;;;8.50;4.68;;;;;;;26.10;46.48;94526.34;5121032;28;20189;-80
2022/09/15 07:21:23;;;;;;;11.23;4.25;;;;;;;25.92;46.32;94522.13;5116967;28;20177;-79
2022/09/15 07:23:51;;;;;;;9.68;4.22;;;;;;;25.95;46.85;94518.22;5110327;28;20189;-79
2022/09/15 07:26:20;;;;;;;15.07;4.80;;;;;;;25.82;46.38;94537.69;5110353;28;20192;-80
2022/09/15 07:28:49;;;;;;;16.02;4.38;;;;;;;25.57;47.52;94519.66;5109902;28;20185;-80
2022/09/15 07:31:20;;;;;;;10.10;5.00;;;;;;;25.71;47.51;94535.88;5109504;28;20312;-80
2022/09/15 07:33:47;;;;;;;6.72;4.30;;;;;;;25.74;47.60;94544.06;5109722;28;20191;-78
2022/09/15 07:36:14;;;;;;;8.68;5.25;;;;;;;25.77;47.44;94551.47;5109579;28;20236;-77
2022/09/15 07:38:43;;;;;;;14.75;5.07;;;;;;;25.84;47.69;94546.09;5109856;28;20599;-78
2022/09/15 07:41:13;;;;;;;15.55;5.22;;;;;;;25.97;47.75;94548.41;5109855;28;20185;-77
2022/09/15 07:43:40;;;;;;;9.18;4.65;;;;;;;26.13;47.55;94541.59;5109656;28;20185;-79
2022/09/15 07:46:07;;;;;;;9.13;5.10;;;;;;;26.33;46.87;94538.47;5109296;28;20192;-79
2022/09/15 07:48:34;;;;;;;8.00;4.45;;;;;;;26.48;47.63;94538.75;5109940;28;20212;-81
2022/09/15 07:51:00;;;;;;;11.38;4.97;;;;;;;26.60;46.36;94530.78;5109709;28;20185;-78
2022/09/15 07:53:28;;;;;;;7.85;5.05;;;;;;;26.81;46.97;94538.91;5109755;28;21369;-77
2022/09/15 07:55:56;;;;;;;8.18;5.03;;;;;;;26.93;47.12;94527.28;5109760;28;20224;-77
2022/09/15 07:58:24;;;;;;;8.10;4.45;;;;;;;27.11;46.73;94533.28;5109408;28;20192;-78
2022/09/15 08:00:51;;;;;;;12.63;5.32;;;;;;;26.66;45.74;94468.69;5109962;28;20208;-79
2022/09/15 08:03:18;;;;;;;11.27;4.85;;;;;;;27.04;45.84;94509.03;5111182;28;20204;-76
2022/09/15 08:05:44;;;;;;;10.35;4.85;;;;;;;27.27;45.47;94527.97;5109574;28;20224;-79
2022/09/15 08:08:11;;;;;;;11.07;4.20;;;;;;;26.94;46.00;94467.69;5109771;28;20420;-78
2022/09/15 08:10:41;;;;;;;10.50;4.53;;;;;;;27.32;45.29;94514.09;5109408;28;20567;-79
2022/09/15 08:13:07;;;;;;;10.18;4.47;;;;;;;27.46;45.79;94523.19;5109581;28;20258;-79
2022/09/15 08:15:37;;;;;;;10.27;4.53;;;;;;;27.55;45.52;94522.72;5114386;28;20212;-78
2022/09/15 08:18:05;;;;;;;9.23;4.40;;;;;;;27.45;44.63;94494.53;5114766;28;20677;-79
2022/09/15 08:20:32;;;;;;;8.57;3.83;;;;;;;27.71;45.43;94513.97;5109968;28;20200;-77
2022/09/15 08:22:59;;;;;;;8.13;4.25;;;;;;;27.64;45.28;94495.78;5109543;28;20189;-77
2022/09/15 08:25:26;;;;;;;6.63;4.22;;;;;;;27.57;45.28;94468.13;5109173;28;20197;-79
2022/09/15 08:27:55;;;;;;;11.00;4.82;;;;;;;27.90;45.29;94499.47;5109567;28;20197;-79
2022/09/15 08:30:22;;;;;;;9.23;4.50;;;;;;;27.97;44.78;94499.25;5110507;28;20743;-77
2022/09/15 08:32:51;;;;;;;9.32;4.40;;;;;;;27.76;44.52;94464.09;5112698;28;20213;-79
2022/09/15 08:35:19;;;;;;;10.95;4.63;;;;;;;27.86;43.18;94468.69;5112662;28;20205;-79
2022/09/15 08:37:46;;;;;;;7.65;4.63;;;;;;;27.83;44.47;94498.88;5112677;28;20185;-78
2022/09/15 08:40:17;;;;;;;10.32;3.83;;;;;;;27.85;43.93;94485.47;5096670;28;20194;-78
2022/09/15 08:42:47;;;;;;;7.72;4.50;;;;;;;27.68;44.41;94446.16;5092137;28;20247;-78
2022/09/15 08:45:21;;;;;;;13.35;4.43;;;;;;;27.83;44.72;94482.31;5092057;28;20189;-77
2022/09/15 08:47:54;;;;;;;8.32;4.18;;;;;;;27.84;44.55;94478.63;5091928;28;20186;-77
2022/09/15 08:50:28;;;;;;;10.85;4.00;;;;;;;28.00;44.25;94489.03;5091795;28;20196;-79
2022/09/15 08:53:00;;;;;;;10.55;4.28;;;;;;;27.85;44.14;94441.59;5091617;28;20268;-78
2022/09/15 08:55:37;;;;;;;8.15;4.07;;;;;;;28.02;44.67;94467.72;5091623;28;20671;-78
2022/09/15 08:58:04;;;;;;;9.45;4.05;;;;;;;28.15;44.98;94464.69;5092058;28;20182;-77
2022/09/15 09:00:32;;;;;;;9.10;4.43;;;;;;;28.20;44.68;94469.19;5091390;28;20223;-79
2022/09/15 09:03:40;;;;;;;12.07;4.15;;;;;;;28.23;44.44;94458.16;5091600;28;20257;-77
2022/09/15 09:06:18;;;;;;;8.98;4.75;;;;;;;28.19;44.96;94457.84;5009390;28;20223;-77
2022/09/15 09:09:12;;;;;;;7.40;4.20;;;;;;;28.14;44.10;94447.31;5008773;28;20308;-79
2022/09/15 09:11:55;;;;;;;11.35;4.70;;;;;;;28.30;44.55;94458.72;5009444;28;20204;-79
2022/09/15 09:14:28;;;;;;;11.15;4.22;;;;;;;28.32;44.08;94451.34;5009358;28;20195;-78
2022/09/15 09:17:13;;;;;;;13.48;4.80;;;;;;;28.34;43.93;94454.53;5008934;28;20707;-78
2022/09/15 09:20:13;;;;;;;12.68;4.40;;;;;;;28.36;43.79;94446.41;5009349;28;20207;-80
2022/09/15 09:22:45;;;;;;;10.15;3.90;;;;;;;28.33;43.77;94452.97;4951078;29;20252;-79
2022/09/15 09:25:18;;;;;;;12.68;4.80;;;;;;;28.30;44.15;94452.69;4951550;29;20186;-77
2022/09/15 09:27:47;;;;;;;12.38;4.15;;;;;;;28.19;42.80;94430.75;4951149;29;20252;-77
2022/09/15 09:30:17;;;;;;;11.68;4.18;;;;;;;28.22;44.01;94430.25;4950988;29;20202;-79
2022/09/15 09:32:49;;;;;;;11.38;4.13;;;;;;;28.30;43.78;94445.56;4950911;29;20198;-78
2022/09/15 09:35:23;;;;;;;10.07;4.28;;;;;;;28.31;43.75;94414.78;4950472;29;20198;-78
2022/09/15 09:37:53;;;;;;;8.88;3.83;;;;;;;28.31;43.92;94438.47;4950961;29;20189;-81
2022/09/15 09:40:21;;;;;;;10.55;4.22;;;;;;;28.30;43.64;94414.00;4985103;28;20189;-77
2022/09/15 09:42:48;;;;;;;11.15;3.70;;;;;;;28.31;42.95;94415.59;5009230;28;20214;-77
2022/09/15 09:45:18;;;;;;;5.88;3.80;;;;;;;27.91;43.74;94355.69;5009205;28;20223;-78
2022/09/15 09:47:46;;;;;;;9.35;4.22;;;;;;;28.27;43.21;94412.66;5009107;28;20204;-79
2022/09/15 09:50:34;;;;;;;13.38;4.15;;;;;;;28.02;43.31;94370.44;5008728;28;20280;-78
2022/09/15 09:53:19;;;;;;;7.82;4.13;;;;;;;28.33;43.44;94425.88;5008868;28;20228;-77
2022/09/15 09:55:46;;;;;;;8.38;3.72;;;;;;;28.37;43.80;94426.94;5016005;28;20691;-78
2022/09/15 09:58:18;;;;;;;11.45;4.15;;;;;;;28.38;43.86;94420.66;5017720;28;20219;-78
2022/09/15 10:00:45;;;;;;;8.65;3.97;;;;;;;28.40;44.12;94426.44;5090776;28;20194;-79
2022/09/15 10:03:16;;;;;;;8.57;4.63;;;;;;;28.16;44.05;94390.00;5090497;28;20689;-80
2022/09/15 10:05:45;;;;;;;10.65;4.72;;;;;;;28.16;44.44;94383.97;5095220;28;20240;-79
2022/09/15 10:08:18;;;;;;;35.53;4.97;;;;;;;28.47;44.96;94419.13;5111536;28;20192;-78
2022/09/15 10:10:52;;;;;;;9.98;4.28;;;;;;;28.53;44.93;94412.03;5111774;28;20211;-80
2022/09/15 10:13:20;;;;;;;14.38;4.28;;;;;;;28.53;44.74;94422.56;5112035;28;20198;-78
2022/09/15 10:15:53;;;;;;;11.68;4.30;;;;;;;28.44;44.49;94401.22;5111065;28;20201;-80
2022/09/15 10:18:34;;;;;;;7.18;3.72;;;;;;;28.56;44.50;94417.59;5102525;28;20204;-83
2022/09/15 10:21:03;;;;;;;8.18;3.75;;;;;;;28.44;44.40;94396.75;5091631;28;20251;-79
2022/09/15 10:23:36;;;;;;;13.52;4.60;;;;;;;28.56;44.17;94409.69;5113123;28;20185;-82
2022/09/15 10:26:30;;;;;;;11.02;3.90;;;;;;;28.58;44.66;94412.06;5111555;28;20223;-83
2022/09/15 10:29:12;;;;;;;11.75;3.95;;;;;;;28.66;43.55;94406.31;5110659;28;20235;-82
2022/09/15 10:31:39;;;;;;;9.73;4.10;;;;;;;28.37;43.29;94361.19;5111094;28;20197;-78
2022/09/15 10:34:27;;;;;;;10.98;4.18;;;;;;;28.67;43.10;94398.16;5110840;28;20192;-82
2022/09/15 10:37:01;;;;;;;6.68;3.92;;;;;;;28.64;43.55;94380.25;5112832;28;20220;-78
2022/09/15 10:39:36;;;;;;;8.88;4.30;;;;;;;28.58;43.00;94362.84;5111180;28;20678;-81
2022/09/15 10:42:12;;;;;;;12.15;4.85;;;;;;;28.79;43.07;94391.88;5111334;28;20184;-80
2022/09/15 10:44:50;;;;;;;9.80;4.22;;;;;;;28.79;43.31;94395.28;5110983;28;20189;-78
2022/09/15 10:47:32;;;;;;;8.25;3.90;;;;;;;28.89;42.95;94389.28;5110679;28;20196;-80
2022/09/15 10:50:10;;;;;;;6.18;3.40;;;;;;;28.99;41.11;94390.13;5110741;28;20189;-81
2022/09/15 10:52:51;;;;;;;8.75;3.03;;;;;;;28.59;40.11;94311.03;5109766;28;20185;-78
2022/09/15 10:55:40;;;;;;;5.95;3.35;;;;;;;29.17;41.37;94372.25;5110564;28;20196;-80
2022/09/15 10:58:29;;;;;;;6.03;3.20;;;;;;;29.36;40.65;94369.88;5110693;28;20193;-79
2022/09/15 11:01:03;;;;;;;8.73;3.03;;;;;;;29.33;39.89;94355.41;5112517;28;20192;-79
2022/09/15 11:04:00;;;;;;;11.68;3.67;;;;;;;29.43;39.86;94357.25;5110507;28;20203;-79
2022/09/15 11:06:35;;;;;;;6.75;2.78;;;;;;;29.58;39.04;94359.09;5110225;28;20348;-82
2022/09/15 11:09:13;;;;;;;7.72;3.10;;;;;;;29.74;37.46;94372.00;5110161;28;20873;-78
2022/09/15 11:11:52;;;;;;;6.03;2.83;;;;;;;29.82;37.48;94368.06;5111860;28;20720;-79
2022/09/15 11:14:43;;;;;;;11.73;4.35;;;;;;;29.88;37.36;94353.00;5110634;28;20193;-82
2022/09/15 11:17:29;;;;;;;9.77;2.38;;;;;;;29.97;38.05;94351.44;5110231;28;20220;-79
2022/09/15 11:20:11;;;;;;;14.15;3.25;;;;;;;29.93;39.04;94332.72;5110363;28;20188;-80
2022/09/15 11:22:42;;;;;;;8.18;3.10;;;;;;;30.14;39.45;94351.09;5110635;28;20575;-80
2022/09/15 11:25:15;;;;;;;6.28;2.63;;;;;;;30.08;37.90;94333.72;5110941;28;20185;-82
2022/09/15 11:27:48;;;;;;;12.75;2.55;;;;;;;30.18;36.74;94339.81;5111005;28;20223;-80
2022/09/15 11:30:18;;;;;;;6.50;2.78;;;;;;;30.31;37.32;94340.28;5111093;28;20181;-79
2022/09/15 11:32:52;;;;;;;9.48;2.90;;;;;;;30.30;37.14;94342.13;5111001;28;20547;-82
2022/09/15 11:35:40;;;;;;;10.90;2.78;;;;;;;30.39;37.21;94345.00;5110753;28;20545;-78
2022/09/15 11:38:18;;;;;;;11.18;2.70;;;;;;;30.48;37.85;94338.91;5112504;28;20217;-82
2022/09/15 11:40:50;;;;;;;10.55;2.97;;;;;;;30.34;38.62;94294.88;5113338;28;20199;-82
2022/09/15 11:43:30;;;;;;;5.00;3.20;;;;;;;30.60;36.82;94332.50;5111340;28;20264;-81
2022/09/15 11:46:00;;;;;;;9.35;3.40;;;;;;;30.52;36.60;94312.72;5111460;28;20192;-82
2022/09/15 11:48:33;;;;;;;5.90;2.90;;;;;;;30.35;37.07;94262.16;5110648;28;20189;-80